Terminal Aerodrome Forecast
Issued by NWS Quad Cities IA IL

Home | Current Version | Previous Version | Text Only | Print | Product List | Glossary On
Versions: 1 2 3 4 5 6 7 8 9 10 11 12 13 14 15 16 17 18 19 20 21
000
FTUS43 KDVN 250520
TAFDBQ
TAF
KDBQ 250520Z 2506/2606 VRB03KT P6SM SCT050
     FM250900 15006KT 5SM BR BKN200
     FM251400 16008KT P6SM BKN050 PROB30 2517/2518 -TSRA BKN040CB
     FM251800 18009KT P6SM BKN040
      TEMPO 2518/2522 4SM TSRA BR BKN035CB
     FM260200 16007KT 6SM BR BKN040=

USA.gov is the U.S. government's official web portal to all federal, state and local government web resources and services.